Time;durP1;ratioP1;P1;durP2;ratioP2;P2;SDS_P1;SDS_P2;PMS_P1;PMS_P2;Temp;Humidity;BMP_temperature;BMP_pressure;BME280_temperature;BME280_humidity;BME280_pressure;Samples;Min_cycle;Max_cycle;Signal;HPM_P1;HPM_P2
2022/09/07 00:00:58;;;;;;;9.32;4.90;;;;;;;21.35;68.65;101212.66;5056843;28;20040;-80
2022/09/07 00:03:23;;;;;;;6.30;4.38;;;;;;;21.33;68.96;101210.00;5056571;28;20052;-80
2022/09/07 00:05:50;;;;;;;6.65;4.65;;;;;;;21.27;68.97;101211.00;5056041;28;20033;-80
2022/09/07 00:08:17;;;;;;;11.70;4.15;;;;;;;21.25;68.85;101207.50;5056161;28;20033;-81
2022/09/07 00:10:57;;;;;;;6.35;4.10;;;;;;;21.18;68.01;101203.22;5056376;28;20104;-80
2022/09/07 00:13:25;;;;;;;7.47;4.03;;;;;;;21.01;68.36;101197.41;5057000;28;20470;-80
2022/09/07 00:15:51;;;;;;;7.22;3.50;;;;;;;20.93;68.47;101172.53;5056426;28;20437;-80
2022/09/07 00:18:17;;;;;;;7.53;3.65;;;;;;;20.75;68.86;101160.50;5055265;28;20037;-80
2022/09/07 00:20:43;;;;;;;4.95;3.40;;;;;;;20.59;69.12;101168.06;5056459;28;20131;-81
2022/09/07 00:23:08;;;;;;;6.30;3.40;;;;;;;20.57;69.30;101164.53;5038761;28;20554;-81
2022/09/07 00:25:38;;;;;;;6.65;3.80;;;;;;;20.47;69.66;101154.91;5056100;28;20382;-81
2022/09/07 00:28:05;;;;;;;6.57;3.80;;;;;;;20.42;69.73;101159.50;5038528;28;20029;-81
2022/09/07 00:30:31;;;;;;;6.45;3.70;;;;;;;20.25;70.17;101170.66;5038258;28;20086;-81
2022/09/07 00:32:56;;;;;;;7.05;3.47;;;;;;;20.05;71.19;101157.75;5055682;28;20120;-81
2022/09/07 00:35:22;;;;;;;7.68;3.90;;;;;;;20.03;70.64;101156.88;5055852;28;20465;-81
2022/09/07 00:37:47;;;;;;;5.28;3.13;;;;;;;20.06;70.71;101156.81;5038308;28;20044;-81
2022/09/07 00:40:13;;;;;;;6.93;3.53;;;;;;;20.16;70.52;101169.06;5037855;28;20558;-81
2022/09/07 00:42:38;;;;;;;7.95;3.50;;;;;;;20.10;70.30;101174.59;5056073;28;20037;-81
2022/09/07 00:45:19;;;;;;;4.90;3.28;;;;;;;20.11;70.16;101171.00;5038667;28;20348;-81
2022/09/07 00:48:12;;;;;;;7.80;3.45;;;;;;;20.22;69.59;101168.06;5055366;28;20120;-81
2022/09/07 00:50:49;;;;;;;6.47;3.55;;;;;;;20.23;69.73;101159.97;5043329;28;20041;-81
2022/09/07 00:53:25;;;;;;;6.28;3.58;;;;;;;20.32;69.34;101156.19;5038573;28;20040;-81
2022/09/07 00:55:52;;;;;;;6.97;3.75;;;;;;;20.23;69.97;101149.25;5055901;28;20025;-81
2022/09/07 00:58:20;;;;;;;7.30;3.67;;;;;;;20.19;69.62;101146.66;5056084;28;20435;-81
2022/09/07 01:00:47;;;;;;;5.88;3.65;;;;;;;20.15;69.83;101135.13;5055200;28;20035;-81
2022/09/07 01:03:16;;;;;;;7.13;3.60;;;;;;;20.09;70.01;101132.59;5055638;28;20082;-81
2022/09/07 01:05:50;;;;;;;6.88;3.80;;;;;;;19.98;70.35;101124.78;5054985;28;20464;-81
2022/09/07 01:08:16;;;;;;;7.05;3.72;;;;;;;19.81;70.46;101107.34;5055349;28;20028;-81
2022/09/07 01:10:42;;;;;;;5.22;3.53;;;;;;;19.76;70.82;101120.84;5055233;28;20037;-81
2022/09/07 01:13:08;;;;;;;5.97;3.58;;;;;;;19.65;71.61;101128.25;5055198;28;20116;-81
2022/09/07 01:15:50;;;;;;;5.15;3.53;;;;;;;19.72;70.93;101127.19;5055154;28;20068;-81
2022/09/07 01:18:36;;;;;;;5.50;3.67;;;;;;;19.71;70.88;101128.13;5055987;28;20033;-81
2022/09/07 01:21:27;;;;;;;6.50;3.70;;;;;;;19.74;70.74;101128.03;5036944;28;20090;-81
2022/09/07 01:24:15;;;;;;;6.13;3.60;;;;;;;19.74;70.59;101118.22;5054901;28;20147;-81
2022/09/07 01:26:53;;;;;;;6.38;3.80;;;;;;;19.68;70.69;101129.06;5041334;28;20086;-81
2022/09/07 01:29:36;;;;;;;5.05;3.40;;;;;;;19.68;70.82;101133.53;5054245;28;20036;-81
2022/09/07 01:32:20;;;;;;;5.35;3.33;;;;;;;19.72;70.25;101141.50;5055157;28;20097;-81
2022/09/07 01:34:51;;;;;;;5.68;3.30;;;;;;;19.78;70.52;101153.88;5055122;28;20033;-81
2022/09/07 01:37:42;;;;;;;5.30;3.40;;;;;;;19.83;69.54;101153.75;5054513;28;20029;-81
2022/09/07 01:40:15;;;;;;;6.57;3.53;;;;;;;19.79;70.37;101152.09;5036709;28;20128;-82
2022/09/07 01:42:59;;;;;;;6.13;3.60;;;;;;;19.75;70.49;101137.88;5054631;28;20446;-81
2022/09/07 01:45:28;;;;;;;5.32;3.17;;;;;;;19.71;71.01;101131.69;5037545;28;20025;-81
2022/09/07 01:47:57;;;;;;;5.15;3.30;;;;;;;19.72;70.67;101129.88;5054222;28;20025;-81
2022/09/07 01:50:38;;;;;;;5.60;3.38;;;;;;;19.68;70.86;101130.88;5054488;28;20087;-81
2022/09/07 01:53:10;;;;;;;5.07;3.28;;;;;;;19.72;70.47;101133.44;5054432;28;20078;-81
2022/09/07 01:55:42;;;;;;;9.10;3.55;;;;;;;19.68;70.53;101133.53;5053985;28;20037;-80
2022/09/07 01:58:27;;;;;;;8.85;3.40;;;;;;;19.76;70.44;101126.22;5054427;28;20025;-81
2022/09/07 02:01:08;;;;;;;4.40;3.20;;;;;;;19.71;70.65;101129.00;5054925;28;20447;-81
2022/09/07 02:03:40;;;;;;;6.63;3.25;;;;;;;19.66;70.98;101138.06;5054570;28;20079;-81
2022/09/07 02:06:16;;;;;;;7.15;3.15;;;;;;;19.61;70.70;101145.31;5054318;28;20459;-81
2022/09/07 02:08:48;;;;;;;4.68;3.30;;;;;;;19.69;70.62;101143.34;5054515;28;20103;-81
2022/09/07 02:11:28;;;;;;;5.70;3.20;;;;;;;19.87;69.79;101140.28;5054467;28;20126;-81
2022/09/07 02:14:00;;;;;;;5.32;3.35;;;;;;;19.97;69.25;101148.97;5053889;28;20028;-81
2022/09/07 02:16:29;;;;;;;5.00;3.10;;;;;;;20.05;68.98;101146.13;5054929;28;20035;-81
2022/09/07 02:19:02;;;;;;;5.00;3.17;;;;;;;20.17;68.56;101140.44;5054038;28;20041;-81
2022/09/07 02:21:35;;;;;;;4.47;3.20;;;;;;;20.29;68.03;101134.78;5054264;28;20481;-81
2022/09/07 02:24:10;;;;;;;6.25;3.67;;;;;;;20.33;67.51;101123.03;5053552;28;20071;-81
2022/09/07 02:26:39;;;;;;;5.63;3.22;;;;;;;20.18;68.05;101128.81;5053889;28;20033;-81
2022/09/07 02:29:06;;;;;;;4.90;3.30;;;;;;;20.27;67.79;101126.78;5054400;28;20025;-81
2022/09/07 02:31:32;;;;;;;7.15;3.40;;;;;;;20.22;67.65;101130.50;5053749;28;20106;-81
2022/09/07 02:34:00;;;;;;;6.47;3.33;;;;;;;20.09;67.90;101132.59;5053507;28;20479;-81
2022/09/07 02:36:31;;;;;;;4.65;3.25;;;;;;;19.84;68.89;101145.69;5053336;28;20379;-81
2022/09/07 02:38:56;;;;;;;6.25;3.70;;;;;;;19.62;69.89;101137.25;5036428;28;20119;-81
2022/09/07 02:41:27;;;;;;;5.13;3.63;;;;;;;19.56;70.11;101140.03;5052977;28;20116;-81
2022/09/07 02:43:52;;;;;;;6.07;3.63;;;;;;;19.67;69.72;101140.72;5053630;28;20021;-81
2022/09/07 02:46:49;;;;;;;5.07;3.72;;;;;;;19.60;69.44;101133.69;5053851;28;20029;-81
2022/09/07 02:49:34;;;;;;;6.90;3.40;;;;;;;19.67;69.25;101126.44;5054093;28;20088;-81
2022/09/07 02:52:40;;;;;;;6.25;3.70;;;;;;;19.64;69.09;101130.03;5053568;28;20538;-81
2022/09/07 02:55:15;;;;;;;4.60;3.15;;;;;;;19.50;69.41;101143.72;5053706;28;20383;-81
2022/09/07 02:58:08;;;;;;;5.07;3.47;;;;;;;19.45;69.88;101147.44;5054130;28;20056;-81
2022/09/07 03:00:43;;;;;;;5.85;3.70;;;;;;;19.22;70.96;101138.03;5053188;28;20112;-81
2022/09/07 03:03:23;;;;;;;5.07;3.50;;;;;;;19.21;70.96;101136.28;5053482;28;20074;-81
2022/09/07 03:06:00;;;;;;;5.63;3.75;;;;;;;19.29;70.60;101140.63;5053390;28;20108;-80
2022/09/07 03:08:33;;;;;;;5.97;4.07;;;;;;;19.24;70.73;101136.22;5053699;28;20025;-81
2022/09/07 03:10:59;;;;;;;6.18;3.92;;;;;;;19.34;70.89;101134.22;5053370;28;20386;-81
2022/09/07 03:13:27;;;;;;;5.65;3.88;;;;;;;19.27;71.01;101136.19;5036340;28;20037;-81
2022/09/07 03:15:53;;;;;;;5.90;4.18;;;;;;;19.26;71.22;101134.38;5035456;28;20076;-81
2022/09/07 03:18:19;;;;;;;6.47;4.20;;;;;;;19.17;72.10;101137.25;5053305;28;20039;-81
2022/09/07 03:20:45;;;;;;;6.78;4.30;;;;;;;19.20;72.10;101128.28;5053315;28;20025;-80
2022/09/07 03:23:10;;;;;;;7.30;4.38;;;;;;;19.25;71.75;101115.69;5053811;28;20037;-80
2022/09/07 03:25:36;;;;;;;6.53;3.80;;;;;;;19.31;72.01;101114.66;5053165;28;20037;-81
2022/09/07 03:28:02;;;;;;;5.75;4.05;;;;;;;19.40;71.21;101127.84;5053438;28;20061;-80
2022/09/07 03:30:27;;;;;;;5.45;4.07;;;;;;;19.42;71.62;101118.88;5053726;28;20037;-80
2022/09/07 03:32:53;;;;;;;6.32;4.40;;;;;;;19.48;71.45;101125.91;5053131;28;20386;-80
2022/09/07 03:35:18;;;;;;;6.35;4.28;;;;;;;19.54;71.29;101128.47;5035264;28;20090;-80
2022/09/07 03:37:43;;;;;;;6.80;4.50;;;;;;;19.55;71.43;101119.50;5053107;28;20509;-80
2022/09/07 03:40:11;;;;;;;6.82;4.07;;;;;;;19.59;71.15;101125.69;5053370;28;20060;-80
2022/09/07 03:42:38;;;;;;;6.22;4.20;;;;;;;19.54;71.24;101112.38;5053042;28;20467;-80
2022/09/07 03:45:05;;;;;;;9.52;4.20;;;;;;;19.60;71.12;101114.03;5052974;28;20028;-80
2022/09/07 03:47:33;;;;;;;9.00;4.32;;;;;;;19.56;70.86;101115.88;5052940;28;20033;-80
2022/09/07 03:49:58;;;;;;;6.47;4.20;;;;;;;19.48;71.17;101131.25;5052618;28;20447;-80
2022/09/07 03:52:23;;;;;;;7.90;4.40;;;;;;;19.47;71.38;101129.50;5053217;28;20116;-81
2022/09/07 03:54:49;;;;;;;6.93;4.50;;;;;;;19.56;71.02;101137.34;5056698;28;20151;-81
2022/09/07 03:57:14;;;;;;;7.40;4.40;;;;;;;19.52;71.05;101130.28;5038515;28;20140;-80
2022/09/07 03:59:40;;;;;;;6.40;4.47;;;;;;;19.55;70.72;101130.22;5056610;28;20047;-80
2022/09/07 04:02:05;;;;;;;8.07;4.25;;;;;;;19.52;71.23;101115.06;5056864;28;20106;-80
2022/09/07 04:04:31;;;;;;;8.18;4.63;;;;;;;19.53;71.44;101107.94;5038713;28;20064;-80
2022/09/07 04:06:56;;;;;;;8.18;4.75;;;;;;;19.45;71.47;101109.91;5056458;28;20107;-81
2022/09/07 04:09:22;;;;;;;8.30;4.70;;;;;;;19.34;72.37;101106.56;5056374;28;20044;-81
2022/09/07 04:11:47;;;;;;;7.70;4.53;;;;;;;19.17;72.46;101107.78;5056606;28;20044;-81
2022/09/07 04:14:13;;;;;;;10.38;4.70;;;;;;;19.17;72.22;101094.41;5056368;28;20075;-80
2022/09/07 04:16:38;;;;;;;7.90;4.93;;;;;;;19.23;72.49;101096.09;5056998;28;20138;-81
2022/09/07 04:19:04;;;;;;;7.47;4.80;;;;;;;19.32;72.12;101089.66;5056277;28;20045;-80
2022/09/07 04:21:32;;;;;;;6.28;4.75;;;;;;;19.47;71.94;101084.81;5038460;28;20045;-80
2022/09/07 04:23:58;;;;;;;8.70;4.90;;;;;;;19.44;71.64;101086.69;5056605;28;20568;-80
2022/09/07 04:26:26;;;;;;;7.32;4.80;;;;;;;19.39;71.55;101078.75;5055753;28;20033;-80
2022/09/07 04:28:53;;;;;;;9.50;4.68;;;;;;;19.39;71.73;101088.56;5055748;28;20130;-80
2022/09/07 04:31:20;;;;;;;6.75;4.78;;;;;;;19.25;72.46;101094.25;5038674;28;20040;-80
2022/09/07 04:33:47;;;;;;;7.18;5.10;;;;;;;19.20;72.64;101106.84;5038275;28;20037;-80
2022/09/07 04:36:13;;;;;;;9.30;5.50;;;;;;;19.10;72.77;101103.50;5055529;28;20438;-80
2022/09/07 04:38:38;;;;;;;7.05;4.95;;;;;;;19.21;72.70;101103.25;5055507;28;20095;-80
2022/09/07 04:41:11;;;;;;;7.60;4.90;;;;;;;19.04;72.90;101103.59;5055695;28;20482;-80
2022/09/07 04:43:37;;;;;;;7.82;4.97;;;;;;;19.05;72.89;101108.03;5056003;28;20029;-80
2022/09/07 04:46:10;;;;;;;7.05;5.00;;;;;;;19.12;72.79;101111.47;5055503;28;20060;-80
2022/09/07 04:48:35;;;;;;;;;;;;;;;19.29;71.91;101105.78;5056019;28;20029;-81
2022/09/07 04:51:08;;;;;;;8.85;5.10;;;;;;;19.01;72.89;101104.56;5056093;28;19909;-80
2022/09/07 04:53:36;;;;;;;11.02;5.50;;;;;;;18.96;73.33;101108.22;5056179;28;20025;-81
2022/09/07 04:56:02;;;;;;;10.25;5.35;;;;;;;18.91;73.52;101111.00;5055027;28;20029;-80
2022/09/07 04:58:27;;;;;;;9.50;5.50;;;;;;;18.82;74.23;101095.09;5055486;28;20047;-80
2022/09/07 05:00:53;;;;;;;11.20;5.82;;;;;;;18.79;74.70;101099.63;5055669;28;20037;-82
2022/09/07 05:03:18;;;;;;;7.90;5.97;;;;;;;18.73;74.77;101109.56;5055359;28;20095;-78
2022/09/07 05:05:43;;;;;;;10.95;5.57;;;;;;;18.59;75.38;101106.22;5054635;28;20059;-79
2022/09/07 05:08:10;;;;;;;10.35;5.63;;;;;;;18.64;75.21;101101.66;5055287;28;20033;-78
2022/09/07 05:10:35;;;;;;;7.90;5.72;;;;;;;18.59;75.62;101097.31;5055211;28;20045;-78
2022/09/07 05:13:01;;;;;;;8.52;5.65;;;;;;;18.56;76.17;101100.91;5021651;28;20036;-77
2022/09/07 05:15:28;;;;;;;11.30;5.55;;;;;;;18.65;75.95;101092.72;5055466;28;20029;-77
2022/09/07 05:17:54;;;;;;;6.68;5.50;;;;;;;18.75;75.77;101088.97;5055057;28;20045;-77
2022/09/07 05:20:20;;;;;;;11.40;5.72;;;;;;;18.95;74.99;101091.28;5055322;28;20079;-80
2022/09/07 05:22:46;;;;;;;8.45;5.72;;;;;;;19.00;74.92;101091.19;5055546;28;20040;-78
2022/09/07 05:25:11;;;;;;;8.30;5.80;;;;;;;19.07;74.33;101100.88;5037489;28;20538;-78
2022/09/07 05:27:36;;;;;;;13.90;6.07;;;;;;;19.11;73.92;101107.06;5054931;28;20390;-78
2022/09/07 05:30:02;;;;;;;12.40;5.93;;;;;;;19.13;73.98;101100.72;5054890;28;20031;-78
2022/09/07 05:32:27;;;;;;;10.20;5.90;;;;;;;19.28;73.58;101112.94;5054799;28;20033;-78
2022/09/07 05:34:53;;;;;;;9.55;5.40;;;;;;;19.41;73.44;101111.75;5054700;28;20029;-78
2022/09/07 05:37:18;;;;;;;10.10;5.80;;;;;;;19.48;72.66;101109.81;5036501;28;20416;-78
2022/09/07 05:39:44;;;;;;;9.63;5.80;;;;;;;19.56;72.36;101109.66;5054924;28;20028;-78
2022/09/07 05:42:09;;;;;;;12.88;6.05;;;;;;;19.68;71.99;101112.09;5054679;28;20029;-78
2022/09/07 05:44:34;;;;;;;10.05;6.07;;;;;;;19.73;71.54;101104.81;5054497;28;20033;-79
2022/09/07 05:47:00;;;;;;;12.15;5.80;;;;;;;19.75;71.56;101111.06;5054564;28;20499;-79
2022/09/07 05:49:25;;;;;;;13.00;6.00;;;;;;;19.67;71.87;101118.38;5054772;28;20029;-79
2022/09/07 05:51:50;;;;;;;11.07;5.82;;;;;;;19.57;72.29;101108.72;5054466;28;20067;-79
2022/09/07 05:54:16;;;;;;;15.77;6.50;;;;;;;19.55;72.20;101111.47;5054323;28;20070;-78
2022/09/07 05:56:41;;;;;;;11.75;6.05;;;;;;;19.51;72.54;101123.16;5054302;28;20059;-79
2022/09/07 05:59:06;;;;;;;14.43;6.32;;;;;;;19.46;73.00;101119.69;5054320;28;20064;-79
2022/09/07 06:01:34;;;;;;;13.68;6.75;;;;;;;19.41;73.09;101125.16;5054027;28;20059;-79
2022/09/07 06:04:00;;;;;;;14.57;7.00;;;;;;;19.36;73.55;101119.03;5054268;28;20076;-79
2022/09/07 06:06:26;;;;;;;12.95;6.47;;;;;;;19.37;73.61;101117.22;5054124;28;20028;-79
2022/09/07 06:08:52;;;;;;;10.15;6.22;;;;;;;19.41;73.82;101122.47;5054240;28;20563;-79
2022/09/07 06:11:23;;;;;;;11.13;6.53;;;;;;;19.43;73.59;101125.13;5054127;28;20064;-79
2022/09/07 06:13:49;;;;;;;11.15;6.32;;;;;;;19.47;73.96;101130.38;5054168;28;20060;-79
2022/09/07 06:16:16;;;;;;;12.95;7.03;;;;;;;19.60;73.71;101139.03;5035527;28;20463;-79
2022/09/07 06:18:43;;;;;;;14.38;7.63;;;;;;;19.57;73.30;101136.44;5053950;28;20033;-79
2022/09/07 06:21:21;;;;;;;13.27;7.75;;;;;;;19.70;72.87;101129.06;5036093;28;20528;-79
2022/09/07 06:23:47;;;;;;;11.98;7.90;;;;;;;19.64;72.97;101129.16;5054531;28;20033;-79
2022/09/07 06:26:14;;;;;;;14.50;8.15;;;;;;;19.53;73.50;101137.44;5053853;28;20037;-79
2022/09/07 06:28:44;;;;;;;11.18;8.10;;;;;;;19.45;74.16;101139.38;5053759;28;20072;-79
2022/09/07 06:31:15;;;;;;;15.50;8.07;;;;;;;19.49;74.27;101147.31;5054608;28;20111;-79
2022/09/07 06:33:43;;;;;;;11.68;8.05;;;;;;;19.55;74.34;101145.44;5054117;28;20036;-79
2022/09/07 06:36:11;;;;;;;16.13;9.43;;;;;;;19.63;74.60;101143.50;5053716;28;20445;-79
2022/09/07 06:38:37;;;;;;;14.60;9.48;;;;;;;19.68;74.26;101146.94;5053361;28;20364;-79
2022/09/07 06:41:14;;;;;;;13.55;9.65;;;;;;;19.78;74.01;101145.81;5053617;28;20029;-79
2022/09/07 06:43:40;;;;;;;15.00;10.85;;;;;;;19.73;73.82;101156.66;5053368;28;20041;-79
2022/09/07 06:46:06;;;;;;;22.63;12.90;;;;;;;19.51;75.18;101161.56;5053560;28;20120;-79
2022/09/07 06:48:32;;;;;;;20.65;14.20;;;;;;;19.38;75.43;101154.69;5053516;28;20029;-79
2022/09/07 06:51:04;;;;;;;22.65;15.45;;;;;;;19.37;75.81;101158.31;5053482;28;20040;-79
2022/09/07 06:53:33;;;;;;;28.88;16.25;;;;;;;19.39;76.01;101155.56;5053577;28;20032;-79
2022/09/07 06:55:59;;;;;;;26.17;17.23;;;;;;;19.36;76.59;101151.19;5053203;28;20040;-79
2022/09/07 06:58:25;;;;;;;28.17;17.88;;;;;;;19.29;76.83;101149.53;5054104;28;20052;-79
2022/09/07 07:00:52;;;;;;;21.20;17.00;;;;;;;19.25;76.87;101147.81;5053481;28;20548;-79
2022/09/07 07:03:18;;;;;;;29.13;20.63;;;;;;;19.22;77.30;101167.50;5053720;28;20040;-78
2022/09/07 07:05:54;;;;;;;27.92;19.52;;;;;;;19.27;77.30;101171.00;5035372;28;20048;-78
2022/09/07 07:08:21;;;;;;;27.20;20.35;;;;;;;19.14;77.67;101160.53;5053436;28;20037;-78
2022/09/07 07:10:47;;;;;;;26.58;19.08;;;;;;;19.12;77.92;101162.38;5053847;28;20059;-79
2022/09/07 07:13:12;;;;;;;32.35;22.67;;;;;;;18.99;78.55;101167.09;5053657;28;20029;-78
2022/09/07 07:15:37;;;;;;;28.42;21.75;;;;;;;18.97;79.06;101151.06;5035634;28;20128;-79
2022/09/07 07:18:03;;;;;;;27.63;21.63;;;;;;;19.31;79.45;101157.53;5053485;28;20410;-79
2022/09/07 07:20:29;;;;;;;30.88;21.65;;;;;;;19.64;78.36;101167.59;5053462;28;20052;-79
2022/09/07 07:22:54;;;;;;;25.92;21.27;;;;;;;19.87;76.47;101159.06;5053202;28;20036;-79
2022/09/07 07:25:20;;;;;;;30.42;21.92;;;;;;;19.98;76.88;101169.53;5053039;28;20025;-78
2022/09/07 07:27:46;;;;;;;26.50;21.05;;;;;;;19.97;76.16;101151.66;5054015;28;20033;-79
2022/09/07 07:30:15;;;;;;;31.08;21.02;;;;;;;20.22;75.76;101166.28;5057685;28;20033;-78
2022/09/07 07:32:42;;;;;;;26.75;20.67;;;;;;;20.44;74.90;101155.00;5057122;28;20466;-79
2022/09/07 07:35:08;;;;;;;31.38;21.52;;;;;;;20.59;74.94;101169.88;5057086;28;20043;-78
2022/09/07 07:37:35;;;;;;;29.52;20.77;;;;;;;20.67;74.47;101170.56;5056751;28;20041;-79
2022/09/07 07:40:02;;;;;;;30.33;20.50;;;;;;;20.81;74.63;101178.25;5056880;28;20037;-78
2022/09/07 07:42:27;;;;;;;28.33;20.42;;;;;;;20.86;73.63;101171.84;5056901;28;20041;-79
2022/09/07 07:44:53;;;;;;;26.85;19.40;;;;;;;21.09;73.42;101183.78;5056809;28;20029;-79
2022/09/07 07:47:19;;;;;;;31.83;18.85;;;;;;;21.21;71.94;101181.63;5056863;28;20044;-79
2022/09/07 07:49:44;;;;;;;26.95;18.95;;;;;;;21.21;71.40;101176.25;5039111;28;20032;-79
2022/09/07 07:52:10;;;;;;;23.15;18.58;;;;;;;21.09;72.15;101181.09;5056529;28;20029;-79
2022/09/07 07:54:35;;;;;;;24.88;19.45;;;;;;;21.04;72.42;101186.59;5056736;28;20033;-80
2022/09/07 07:57:01;;;;;;;25.65;18.90;;;;;;;21.14;72.84;101185.41;5022131;28;20045;-80
2022/09/07 07:59:27;;;;;;;22.13;18.55;;;;;;;21.36;70.97;101177.66;5056657;28;20033;-80
2022/09/07 08:01:52;;;;;;;23.85;18.20;;;;;;;21.63;69.92;101185.84;5056838;28;20045;-80
2022/09/07 08:04:18;;;;;;;23.55;18.00;;;;;;;21.85;69.31;101183.41;5056490;28;20124;-80
2022/09/07 08:06:43;;;;;;;24.40;17.85;;;;;;;21.98;68.37;101187.47;5022573;28;20052;-80
2022/09/07 08:09:10;;;;;;;25.48;17.17;;;;;;;22.20;68.58;101193.97;5038649;28;20086;-80
2022/09/07 08:11:36;;;;;;;24.38;18.85;;;;;;;22.40;68.60;101182.56;5056317;28;20085;-80
2022/09/07 08:14:04;;;;;;;22.17;17.15;;;;;;;22.66;67.37;101195.16;5038231;28;20120;-79
2022/09/07 08:16:30;;;;;;;25.70;16.30;;;;;;;22.73;65.46;101201.19;5056193;28;20124;-80
2022/09/07 08:18:56;;;;;;;19.20;15.73;;;;;;;22.70;64.14;101204.91;5038967;28;20110;-79
2022/09/07 08:21:22;;;;;;;17.83;15.18;;;;;;;22.70;65.26;101202.22;5056174;28;20098;-79
2022/09/07 08:23:47;;;;;;;18.05;15.55;;;;;;;22.79;65.38;101203.72;5056201;28;20466;-79
2022/09/07 08:26:13;;;;;;;17.75;15.63;;;;;;;22.73;64.67;101203.91;5056389;28;20033;-79
2022/09/07 08:28:40;;;;;;;20.60;15.00;;;;;;;23.03;65.08;101201.09;5056296;28;20037;-80
2022/09/07 08:31:08;;;;;;;18.65;13.70;;;;;;;23.11;63.91;101204.41;5056249;28;20110;-80
2022/09/07 08:33:36;;;;;;;18.20;14.10;;;;;;;23.19;64.24;101208.59;5056025;28;20029;-80
2022/09/07 08:36:04;;;;;;;15.95;13.55;;;;;;;23.29;63.27;101205.56;5056686;28;20025;-80
2022/09/07 08:38:31;;;;;;;17.92;13.40;;;;;;;23.34;63.60;101203.56;5056372;28;20029;-80
2022/09/07 08:40:58;;;;;;;15.10;12.65;;;;;;;23.55;62.16;101205.47;5054871;28;20060;-80
2022/09/07 08:43:37;;;;;;;15.40;12.13;;;;;;;23.61;61.09;101204.41;5055840;28;20029;-80
2022/09/07 08:46:25;;;;;;;15.07;12.60;;;;;;;23.69;61.68;101214.00;5055772;28;20078;-80
2022/09/07 08:48:51;;;;;;;14.25;12.43;;;;;;;23.69;61.54;101214.00;5055986;28;20025;-80
2022/09/07 08:51:26;;;;;;;14.43;11.60;;;;;;;23.79;60.31;101210.94;5055671;28;20075;-80
2022/09/07 08:53:52;;;;;;;15.95;11.85;;;;;;;23.73;61.05;101206.66;5055683;28;20025;-80
2022/09/07 08:56:26;;;;;;;13.68;11.90;;;;;;;23.81;59.95;101215.34;5055204;28;20029;-80
2022/09/07 08:58:52;;;;;;;13.43;11.98;;;;;;;23.98;59.79;101198.47;5055595;28;20375;-80
2022/09/07 09:01:22;;;;;;;14.38;12.20;;;;;;;24.08;59.77;101210.69;5055182;28;20033;-80
2022/09/07 09:03:48;;;;;;;16.52;12.50;;;;;;;24.38;59.36;101208.59;5055753;28;20031;-80
2022/09/07 09:06:13;;;;;;;15.30;11.60;;;;;;;24.45;58.77;101215.53;5037450;28;20037;-81
2022/09/07 09:09:02;;;;;;;12.90;11.52;;;;;;;24.76;58.60;101210.66;5055206;28;20068;-81
2022/09/07 09:11:39;;;;;;;13.40;11.10;;;;;;;25.06;57.42;101212.03;5055557;28;20083;-80
2022/09/07 09:14:27;;;;;;;12.43;10.00;;;;;;;25.11;56.21;101203.75;5055007;28;20032;-81
2022/09/07 09:16:59;;;;;;;14.75;10.25;;;;;;;25.31;54.99;101205.56;5037572;28;20119;-81
2022/09/07 09:19:43;;;;;;;12.75;9.43;;;;;;;25.44;55.96;101214.91;5055225;28;20033;-81
2022/09/07 09:22:16;;;;;;;12.65;9.10;;;;;;;25.54;53.75;101208.13;5055797;28;20031;-82
2022/09/07 09:25:02;;;;;;;13.95;9.50;;;;;;;25.43;54.45;101218.53;5055971;28;20025;-82
2022/09/07 09:27:27;;;;;;;12.65;9.13;;;;;;;25.56;54.37;101218.84;5055717;28;20040;-81
2022/09/07 09:29:53;;;;;;;13.57;9.48;;;;;;;25.74;53.62;101207.22;5055907;28;20068;-82
2022/09/07 09:32:40;;;;;;;10.35;8.80;;;;;;;26.10;54.10;101215.44;5055448;28;20048;-81
2022/09/07 09:35:34;;;;;;;11.32;8.77;;;;;;;26.33;52.64;101217.00;5055224;28;20029;-81
2022/09/07 09:38:02;;;;;;;13.30;9.68;;;;;;;26.48;51.54;101212.72;5055144;28;20025;-81
2022/09/07 09:40:35;;;;;;;11.85;8.80;;;;;;;26.78;51.41;101210.28;5036808;28;20382;-81
2022/09/07 09:43:06;;;;;;;11.70;8.20;;;;;;;27.08;49.64;101209.66;5054411;28;20040;-81
2022/09/07 09:45:41;;;;;;;11.20;7.38;;;;;;;27.17;48.47;101211.94;5055184;28;20473;-81
2022/09/07 09:48:17;;;;;;;13.13;7.22;;;;;;;27.28;49.07;101212.25;5054933;28;20121;-82
2022/09/07 09:50:48;;;;;;;10.23;6.57;;;;;;;27.60;47.34;101212.34;5054256;28;20446;-82
2022/09/07 09:53:39;;;;;;;12.10;6.60;;;;;;;27.73;47.60;101201.72;5054519;28;20028;-82
2022/09/07 09:56:06;;;;;;;11.43;6.95;;;;;;;27.59;46.27;101216.03;5024786;28;20048;-81
2022/09/07 09:58:35;;;;;;;10.77;6.30;;;;;;;27.82;45.50;101207.50;5036550;28;20483;-81
2022/09/07 10:01:05;;;;;;;9.85;6.20;;;;;;;28.08;44.96;101206.03;5036507;28;20519;-81
2022/09/07 10:03:34;;;;;;;11.95;6.07;;;;;;;28.32;45.59;101211.06;5036076;28;20033;-81
2022/09/07 10:06:05;;;;;;;8.80;5.80;;;;;;;28.50;43.58;101196.41;5036144;28;20037;-81
2022/09/07 10:08:32;;;;;;;10.43;6.10;;;;;;;28.70;44.74;101196.13;5054693;28;20045;-82
2022/09/07 10:11:01;;;;;;;12.43;5.00;;;;;;;28.99;43.03;101195.34;5053821;28;20037;-81
2022/09/07 10:13:33;;;;;;;9.85;4.88;;;;;;;28.79;42.83;101193.81;5054089;28;20470;-81
2022/09/07 10:16:02;;;;;;;8.75;4.70;;;;;;;28.74;42.97;101201.38;5054170;28;20459;-81
2022/09/07 10:18:31;;;;;;;7.60;4.25;;;;;;;28.80;42.56;101191.00;5036717;28;20027;-81
2022/09/07 10:21:22;;;;;;;10.82;4.82;;;;;;;28.90;43.50;101184.03;5054285;28;20064;-81
2022/09/07 10:24:08;;;;;;;10.45;4.60;;;;;;;28.92;42.67;101182.09;5054611;28;20044;-81
2022/09/07 10:26:36;;;;;;;12.25;4.32;;;;;;;28.73;41.80;101183.28;5036099;28;20443;-82
2022/09/07 10:29:33;;;;;;;8.50;3.83;;;;;;;28.37;42.09;101184.50;5053840;28;20391;-81
2022/09/07 10:32:07;;;;;;;9.35;3.40;;;;;;;28.51;42.02;101190.00;5053684;28;20029;-81
2022/09/07 10:35:08;;;;;;;6.93;3.80;;;;;;;28.67;42.77;101179.97;5054101;28;20033;-81
2022/09/07 10:37:44;;;;;;;8.77;3.63;;;;;;;28.95;41.05;101181.94;5054067;28;20036;-81
2022/09/07 10:40:21;;;;;;;11.52;3.42;;;;;;;28.94;40.10;101176.56;5054283;28;20033;-81
2022/09/07 10:43:02;;;;;;;7.32;3.28;;;;;;;28.56;41.42;101166.13;5054036;28;20036;-81
2022/09/07 10:45:44;;;;;;;9.45;3.20;;;;;;;28.68;42.10;101170.84;5054263;28;20032;-81
2022/09/07 10:48:12;;;;;;;;;;;;;;;28.96;42.40;101180.09;5053984;28;20036;-81
2022/09/07 10:50:55;;;;;;;6.15;2.90;;;;;;;28.76;40.65;101178.56;5053229;28;20294;-81
2022/09/07 10:53:40;;;;;;;6.85;2.70;;;;;;;28.62;40.80;101163.06;5036175;28;20116;-81
2022/09/07 10:56:21;;;;;;;6.05;2.65;;;;;;;28.54;40.33;101165.38;5053561;28;20479;-81
2022/09/07 10:58:47;;;;;;;6.40;2.60;;;;;;;28.08;40.90;101165.28;5053885;28;20044;-81
2022/09/07 11:01:49;;;;;;;10.07;3.00;;;;;;;27.62;42.55;101162.44;5053364;28;20037;-82
2022/09/07 11:04:38;;;;;;;8.55;2.85;;;;;;;27.58;42.76;101168.09;5059530;28;20032;-82
2022/09/07 11:07:29;;;;;;;7.03;2.80;;;;;;;27.45;42.44;101170.59;5059382;28;20039;-82
2022/09/07 11:10:13;;;;;;;9.35;2.60;;;;;;;27.18;41.85;101160.28;5060362;28;20029;-82
2022/09/07 11:12:41;;;;;;;7.53;2.70;;;;;;;26.93;42.81;101167.94;5060279;28;20135;-82
2022/09/07 11:15:27;;;;;;;7.05;2.60;;;;;;;27.19;42.71;101158.44;5042847;28;20403;-82
2022/09/07 11:17:59;;;;;;;9.40;2.58;;;;;;;27.55;41.99;101157.44;5042827;28;20379;-81
2022/09/07 11:20:54;;;;;;;8.82;2.90;;;;;;;27.84;42.88;101154.00;5060029;28;20429;-82
2022/09/07 11:23:44;;;;;;;10.43;2.97;;;;;;;28.38;41.48;101161.78;5048096;28;20522;-82
2022/09/07 11:26:16;;;;;;;9.52;2.95;;;;;;;28.62;40.01;101145.88;5059870;28;20466;-82
2022/09/07 11:28:51;;;;;;;8.05;2.78;;;;;;;28.89;40.06;101155.06;5059659;28;20033;-82
2022/09/07 11:31:20;;;;;;;6.70;2.85;;;;;;;29.09;38.43;101153.91;5042499;28;20029;-82
2022/09/07 11:34:00;;;;;;;6.50;2.90;;;;;;;29.19;38.71;101159.63;5059819;28;20091;-82
2022/09/07 11:36:31;;;;;;;7.00;2.65;;;;;;;28.94;38.25;101155.66;5060375;28;20033;-81